Time;durP1;ratioP1;P1;durP2;ratioP2;P2;SDS_P1;SDS_P2;PMS_P1;PMS_P2;Temp;Humidity;BMP_temperature;BMP_pressure;BME280_temperature;BME280_humidity;BME280_pressure;Samples;Min_cycle;Max_cycle;Signal;HPM_P1;HPM_P2
2021/01/01 00:01:07;;;;;;;71.87;41.60;;;4.40;99.90;;;;;;4939674;29;20176;-87
2021/01/01 00:03:33;;;;;;;95.18;50.55;;;4.40;99.90;;;;;;4947954;29;20440;-87
2021/01/01 00:06:02;;;;;;;249.95;128.85;;;4.40;99.90;;;;;;4920944;29;20193;-86
2021/01/01 00:08:29;;;;;;;194.35;112.68;;;4.40;99.90;;;;;;4920129;29;20193;-87
2021/01/01 00:10:58;;;;;;;127.68;67.97;;;4.60;99.90;;;;;;4921063;29;20193;-87
2021/01/01 00:13:26;;;;;;;90.15;48.72;;;4.50;99.90;;;;;;4920283;29;20272;-87
2021/01/01 00:15:54;;;;;;;102.05;54.60;;;4.50;99.90;;;;;;4936045;29;20184;-89
2021/01/01 00:18:23;;;;;;;112.75;60.45;;;4.50;99.90;;;;;;4922161;29;20227;-89
2021/01/01 00:20:48;;;;;;;90.30;48.45;;;4.50;99.90;;;;;;4935898;29;20188;-90
2021/01/01 00:23:15;;;;;;;94.00;50.73;;;4.50;99.90;;;;;;4921079;29;20224;-88
2021/01/01 00:25:41;;;;;;;87.75;48.80;;;4.40;99.90;;;;;;4921241;29;20433;-88
2021/01/01 00:28:07;;;;;;;80.85;44.90;;;4.50;99.90;;;;;;4929923;29;20622;-89
2021/01/01 00:30:33;;;;;;;77.93;42.83;;;4.60;99.90;;;;;;4939469;29;20244;-88
2021/01/01 00:32:58;;;;;;;70.37;38.47;;;4.50;99.90;;;;;;4954396;29;20433;-86
2021/01/01 00:35:27;;;;;;;64.80;37.08;;;4.60;99.90;;;;;;4938994;29;20496;-88
2021/01/01 00:37:55;;;;;;;72.53;35.60;;;4.50;99.90;;;;;;4955420;29;20299;-85
2021/01/01 00:40:21;;;;;;;76.82;39.17;;;4.50;99.90;;;;;;4954892;29;20495;-88
2021/01/01 00:42:49;;;;;;;74.40;38.00;;;4.40;99.90;;;;;;4939263;29;20197;-87
2021/01/01 00:45:15;;;;;;;72.78;35.88;;;4.40;99.90;;;;;;4939414;28;20451;-87
2021/01/01 00:47:46;;;;;;;61.57;35.07;;;4.70;99.90;;;;;;4954354;29;20627;-86
2021/01/01 00:50:12;;;;;;;71.18;37.80;;;4.50;99.90;;;;;;4937395;29;20494;-84
2021/01/01 00:52:38;;;;;;;60.78;35.97;;;4.60;99.90;;;;;;4937411;29;20199;-87
2021/01/01 00:55:06;;;;;;;61.57;36.83;;;4.40;99.90;;;;;;4938597;29;20200;-86
2021/01/01 00:57:32;;;;;;;59.72;34.78;;;4.40;99.90;;;;;;4937450;29;20853;-87
2021/01/01 01:00:05;;;;;;;60.05;33.63;;;4.50;99.90;;;;;;4953123;28;20201;-86
2021/01/01 01:02:31;;;;;;;67.20;37.00;;;4.30;99.90;;;;;;4938897;29;20579;-87
2021/01/01 01:04:57;;;;;;;68.17;38.07;;;4.30;99.90;;;;;;4939276;28;20185;-88
2021/01/01 01:07:23;;;;;;;71.30;40.27;;;4.30;99.90;;;;;;4938782;29;20428;-88
2021/01/01 01:09:50;;;;;;;69.80;39.42;;;4.20;99.90;;;;;;4939666;28;20428;-88
2021/01/01 01:12:18;;;;;;;78.10;40.55;;;4.00;99.90;;;;;;4935532;29;20196;-88
2021/01/01 01:14:47;;;;;;;71.00;38.50;;;4.10;99.90;;;;;;4920244;29;20344;-87
2021/01/01 01:17:13;;;;;;;83.30;47.38;;;4.20;99.90;;;;;;4919738;29;20551;-87
2021/01/01 01:19:39;;;;;;;81.80;44.30;;;4.20;99.90;;;;;;4919247;29;20239;-86
2021/01/01 01:22:07;;;;;;;73.25;40.90;;;4.20;99.90;;;;;;4950071;29;20425;-88
2021/01/01 01:24:36;;;;;;;73.60;38.27;;;4.20;99.90;;;;;;4926389;29;20243;-89
2021/01/01 01:27:04;;;;;;;67.13;36.15;;;4.20;99.90;;;;;;4939292;29;20459;-89
2021/01/01 01:29:34;;;;;;;58.80;35.70;;;4.40;99.90;;;;;;4954393;29;20215;-89
2021/01/01 01:32:32;;;;;;;54.83;33.70;;;4.30;99.90;;;;;;4953787;29;20169;-87
2021/01/01 01:35:01;;;;;;;66.15;33.33;;;4.20;99.90;;;;;;4938554;28;20180;-87
2021/01/01 01:37:27;;;;;;;55.05;31.75;;;4.20;99.90;;;;;;4938549;29;20282;-88
2021/01/01 01:39:52;;;;;;;63.03;33.10;;;4.20;99.90;;;;;;4938369;29;20215;-87
2021/01/01 01:42:18;;;;;;;58.83;31.80;;;4.20;99.90;;;;;;4938900;28;20478;-88
2021/01/01 01:44:46;;;;;;;54.55;31.05;;;4.20;99.90;;;;;;4953978;29;20487;-87
2021/01/01 01:47:17;;;;;;;48.10;28.23;;;4.30;99.90;;;;;;4937428;29;20331;-87
2021/01/01 01:49:44;;;;;;;50.13;29.98;;;4.20;99.90;;;;;;4919290;29;20441;-88
2021/01/01 01:52:12;;;;;;;54.20;31.25;;;4.20;99.90;;;;;;4934596;29;20329;-89
2021/01/01 01:54:40;;;;;;;52.25;28.17;;;4.20;99.90;;;;;;4950799;29;20599;-89
2021/01/01 01:57:08;;;;;;;51.22;28.55;;;4.10;99.90;;;;;;4919804;29;20555;-88
2021/01/01 01:59:34;;;;;;;46.70;27.35;;;4.10;99.90;;;;;;4950276;29;20219;-88
2021/01/01 02:02:03;;;;;;;46.50;27.77;;;4.10;99.90;;;;;;4950965;29;20201;-91
2021/01/01 02:04:34;;;;;;;48.60;27.65;;;4.00;99.90;;;;;;4950033;29;20182;-89
2021/01/01 02:07:05;;;;;;;51.35;28.00;;;4.10;99.90;;;;;;4949975;29;20181;-90
2021/01/01 02:09:31;;;;;;;46.35;26.85;;;4.00;99.90;;;;;;4919988;29;20228;-90
2021/01/01 02:15:19;;;;;;;49.45;26.80;;;4.00;99.90;;;;;;4919989;29;20436;-90
2021/01/01 02:17:48;;;;;;;45.67;27.80;;;4.00;99.90;;;;;;4953270;29;20314;-91
2021/01/01 02:20:14;;;;;;;52.30;26.85;;;4.00;99.90;;;;;;4953848;28;20193;-90
2021/01/01 02:22:42;;;;;;;39.15;24.05;;;4.10;99.90;;;;;;4938102;28;20279;-91
2021/01/01 02:25:10;;;;;;;47.47;26.80;;;4.00;99.90;;;;;;4938718;29;20280;-90
2021/01/01 02:27:38;;;;;;;47.63;25.52;;;4.00;99.90;;;;;;4922299;29;20436;-91
2021/01/01 02:30:05;;;;;;;46.20;26.93;;;4.20;99.90;;;;;;4937644;29;20195;-91
2021/01/01 02:32:46;;;;;;;46.50;26.25;;;4.20;99.90;;;;;;4953586;29;20444;-90
2021/01/01 02:35:17;;;;;;;44.60;26.38;;;4.00;99.90;;;;;;4938158;29;20183;-82
2021/01/01 02:37:48;;;;;;;45.60;26.08;;;4.20;99.90;;;;;;4963146;28;20203;-82
2021/01/01 02:40:21;;;;;;;45.17;25.35;;;4.10;99.90;;;;;;4933801;28;20328;-82
2021/01/01 02:42:50;;;;;;;44.75;26.83;;;4.30;99.90;;;;;;4928598;29;20627;-83
2021/01/01 02:45:18;;;;;;;42.83;25.58;;;4.10;99.90;;;;;;4931346;28;20336;-83
2021/01/01 02:47:45;;;;;;;49.30;24.67;;;4.20;99.90;;;;;;4932755;29;20280;-84
2021/01/01 02:50:17;;;;;;;43.58;23.45;;;4.10;99.90;;;;;;4933415;29;20432;-83
2021/01/01 02:52:45;;;;;;;41.97;24.65;;;4.20;99.90;;;;;;4933854;29;20212;-83
2021/01/01 02:55:14;;;;;;;45.07;26.23;;;4.20;99.90;;;;;;4923051;29;20243;-84
2021/01/01 02:57:40;;;;;;;41.90;25.23;;;4.10;99.90;;;;;;4932668;29;20550;-82
2021/01/01 03:00:07;;;;;;;46.93;25.97;;;4.10;99.90;;;;;;4932923;29;20188;-82
2021/01/01 03:02:33;;;;;;;46.15;25.73;;;4.40;99.90;;;;;;4950127;29;20447;-83
2021/01/01 03:05:07;;;;;;;44.30;23.80;;;4.30;99.90;;;;;;4949762;29;20518;-83
2021/01/01 03:07:37;;;;;;;43.28;26.33;;;4.10;99.90;;;;;;4970271;28;20219;-83
2021/01/01 03:10:06;;;;;;;42.97;24.52;;;4.10;99.90;;;;;;4954845;28;20184;-83
2021/01/01 03:12:32;;;;;;;46.17;28.13;;;4.10;99.90;;;;;;4938833;29;20184;-83
2021/01/01 03:14:58;;;;;;;44.93;26.47;;;4.10;99.90;;;;;;4955636;28;20196;-83
2021/01/01 03:17:26;;;;;;;48.20;28.45;;;4.20;99.90;;;;;;4938707;29;20463;-83
2021/01/01 03:19:57;;;;;;;41.55;24.48;;;4.30;99.90;;;;;;4936677;29;20199;-82
2021/01/01 03:22:29;;;;;;;42.17;26.20;;;4.10;99.90;;;;;;4951150;29;20180;-83
2021/01/01 03:24:59;;;;;;;43.65;24.90;;;4.10;99.90;;;;;;4936290;29;20233;-83
2021/01/01 03:27:30;;;;;;;49.60;27.55;;;4.10;99.90;;;;;;4936484;29;20315;-83
2021/01/01 03:29:56;;;;;;;43.13;24.15;;;4.10;99.90;;;;;;4967408;28;20200;-83
2021/01/01 03:32:22;;;;;;;43.67;24.83;;;4.10;99.90;;;;;;4936139;29;20547;-83
2021/01/01 03:34:52;;;;;;;45.10;27.38;;;4.10;99.90;;;;;;4966572;28;20421;-83
2021/01/01 03:37:25;;;;;;;52.38;27.98;;;4.10;99.90;;;;;;4954439;29;20224;-83
2021/01/01 03:39:54;;;;;;;42.65;24.67;;;4.00;99.90;;;;;;4954628;29;20203;-83
2021/01/01 03:42:25;;;;;;;44.35;25.52;;;4.00;99.90;;;;;;4938451;29;20180;-83
2021/01/01 03:44:51;;;;;;;47.53;26.27;;;3.90;99.90;;;;;;4954745;29;20194;-83
2021/01/01 03:47:19;;;;;;;44.17;27.00;;;4.00;99.90;;;;;;4955398;28;20532;-84
2021/01/01 03:49:47;;;;;;;47.22;26.77;;;4.00;99.90;;;;;;4936271;28;20444;-83
2021/01/01 03:52:18;;;;;;;43.70;25.77;;;4.10;99.90;;;;;;4935168;29;20181;-83
2021/01/01 03:54:46;;;;;;;48.00;25.65;;;3.60;99.90;;;;;;4936106;29;20204;-83
2021/01/01 03:57:17;;;;;;;47.17;28.30;;;4.10;99.90;;;;;;4919649;29;20737;-84
2021/01/01 03:59:47;;;;;;;44.47;27.05;;;4.10;99.90;;;;;;4919857;29;20212;-84
2021/01/01 04:02:15;;;;;;;44.88;25.40;;;4.10;99.90;;;;;;4935157;29;20189;-84
2021/01/01 04:04:46;;;;;;;46.40;25.88;;;4.10;99.90;;;;;;4935365;29;20185;-84
2021/01/01 04:07:12;;;;;;;43.42;25.90;;;4.10;99.90;;;;;;4951622;29;20234;-84
2021/01/01 04:09:40;;;;;;;42.95;26.02;;;4.10;99.90;;;;;;4954300;28;20195;-83
2021/01/01 04:12:08;;;;;;;44.50;26.40;;;4.10;99.90;;;;;;4958619;28;20258;-83
2021/01/01 04:14:44;;;;;;;41.20;25.45;;;4.10;99.90;;;;;;4956729;28;20553;-83
2021/01/01 04:17:19;;;;;;;43.88;27.75;;;4.20;99.90;;;;;;4957642;29;20267;-83
2021/01/01 04:19:45;;;;;;;43.20;26.95;;;4.30;99.90;;;;;;4953448;29;20189;-83
2021/01/01 04:22:13;;;;;;;47.22;25.33;;;4.10;99.90;;;;;;4922507;29;20609;-83
2021/01/01 04:24:44;;;;;;;41.67;25.63;;;4.10;99.90;;;;;;4939173;29;20228;-83
2021/01/01 04:27:12;;;;;;;43.80;26.88;;;4.10;99.90;;;;;;4939348;29;20184;-83
2021/01/01 04:29:40;;;;;;;47.92;27.95;;;4.10;99.90;;;;;;4938299;29;20185;-83
2021/01/01 04:32:06;;;;;;;42.05;25.75;;;4.00;99.90;;;;;;4938984;29;20200;-82
2021/01/01 04:34:32;;;;;;;45.40;26.13;;;4.10;99.90;;;;;;4938192;29;20189;-83
2021/01/01 04:37:03;;;;;;;42.75;26.48;;;4.00;99.90;;;;;;4952361;29;20626;-83
2021/01/01 04:39:36;;;;;;;43.20;27.08;;;4.00;99.90;;;;;;4957105;29;20195;-82
2021/01/01 04:42:03;;;;;;;41.75;25.48;;;4.00;99.90;;;;;;4957092;29;20179;-83
2021/01/01 04:44:34;;;;;;;44.70;25.73;;;4.00;99.90;;;;;;4957955;28;20198;-82
2021/01/01 04:47:07;;;;;;;39.45;24.13;;;3.90;99.90;;;;;;4973163;28;20662;-83
2021/01/01 04:49:36;;;;;;;41.72;25.17;;;4.00;99.90;;;;;;4955687;28;20335;-83
2021/01/01 04:52:05;;;;;;;46.67;24.80;;;3.90;99.90;;;;;;4937931;29;20188;-83
2021/01/01 04:54:42;;;;;;;37.08;24.65;;;3.90;99.90;;;;;;4938789;29;20333;-82
2021/01/01 04:57:11;;;;;;;47.05;25.63;;;4.10;99.90;;;;;;4936049;29;20220;-82
2021/01/01 04:59:41;;;;;;;36.80;23.40;;;3.90;99.90;;;;;;4937297;29;20191;-83
2021/01/01 05:02:10;;;;;;;44.13;24.30;;;3.80;99.90;;;;;;4936643;29;20809;-82
2021/01/01 05:04:38;;;;;;;44.33;24.80;;;4.00;99.90;;;;;;4951900;29;20424;-82
2021/01/01 05:07:06;;;;;;;43.80;24.63;;;4.00;99.90;;;;;;4951802;29;20199;-83
2021/01/01 05:09:33;;;;;;;41.87;26.30;;;3.70;99.90;;;;;;4955779;28;20200;-82
2021/01/01 05:12:14;;;;;;;41.47;25.00;;;3.80;99.90;;;;;;4952377;28;20432;-82
2021/01/01 05:14:41;;;;;;;41.97;24.52;;;3.80;99.90;;;;;;4936048;29;20783;-83
2021/01/01 05:17:10;;;;;;;44.15;27.27;;;3.90;99.90;;;;;;4936277;29;20230;-82
2021/01/01 05:19:44;;;;;;;38.75;22.05;;;3.80;99.90;;;;;;4968159;28;20180;-82
2021/01/01 05:22:15;;;;;;;40.42;25.30;;;4.00;99.90;;;;;;4935660;29;20196;-82
2021/01/01 05:24:47;;;;;;;38.55;25.25;;;3.80;99.90;;;;;;4936335;29;20275;-83
2021/01/01 05:27:17;;;;;;;36.30;23.75;;;3.60;99.90;;;;;;4936871;29;20184;-82
2021/01/01 05:29:55;;;;;;;44.38;26.17;;;3.70;99.90;;;;;;4936852;28;20227;-83
2021/01/01 05:32:28;;;;;;;40.00;24.00;;;3.80;99.90;;;;;;4935450;29;20189;-82
2021/01/01 05:34:56;;;;;;;43.78;24.67;;;3.90;99.90;;;;;;4920651;29;20241;-82
2021/01/01 05:37:33;;;;;;;39.95;24.67;;;3.90;99.90;;;;;;4937074;29;20271;-82
2021/01/01 05:40:07;;;;;;;40.80;25.38;;;3.60;99.90;;;;;;4936045;29;20501;-82
2021/01/01 05:42:38;;;;;;;44.33;25.75;;;3.70;99.90;;;;;;4950821;29;20184;-82
2021/01/01 05:45:18;;;;;;;43.83;26.75;;;3.70;99.90;;;;;;4935909;29;20189;-83
2021/01/01 05:48:08;;;;;;;44.45;25.63;;;3.60;99.90;;;;;;4935465;29;20524;-82
2021/01/01 05:50:38;;;;;;;41.03;23.80;;;3.70;99.90;;;;;;4931700;29;20204;-82
2021/01/01 05:53:16;;;;;;;39.15;24.23;;;3.60;99.90;;;;;;4931475;29;20276;-83
2021/01/01 05:55:44;;;;;;;37.03;23.58;;;3.70;99.90;;;;;;4934453;28;20263;-83
2021/01/01 05:58:30;;;;;;;38.47;23.35;;;3.60;99.90;;;;;;4935575;29;20247;-83
2021/01/01 06:00:57;;;;;;;41.80;25.27;;;3.60;99.90;;;;;;4935759;29;20189;-82
2021/01/01 06:03:28;;;;;;;38.35;23.38;;;3.40;99.90;;;;;;4935753;29;20800;-83
2021/01/01 06:05:55;;;;;;;41.00;23.85;;;3.60;99.90;;;;;;4939713;29;20557;-82
2021/01/01 06:08:26;;;;;;;36.53;23.02;;;3.60;99.90;;;;;;4938459;29;20187;-82
2021/01/01 06:10:54;;;;;;;39.67;22.60;;;3.60;99.90;;;;;;4937956;29;20188;-82
2021/01/01 06:13:23;;;;;;;41.20;24.88;;;3.60;99.90;;;;;;4953769;28;20751;-82
2021/01/01 06:15:59;;;;;;;43.20;25.85;;;3.60;99.90;;;;;;4954969;28;20219;-82
2021/01/01 06:18:33;;;;;;;38.30;24.17;;;3.50;99.90;;;;;;4954730;28;20548;-82
2021/01/01 06:21:05;;;;;;;42.50;25.65;;;3.60;99.90;;;;;;4954907;28;20301;-82
2021/01/01 06:23:41;;;;;;;38.35;22.42;;;3.50;99.90;;;;;;4954653;29;20241;-83
2021/01/01 06:26:11;;;;;;;39.90;24.05;;;3.70;99.90;;;;;;4955244;28;20254;-83
2021/01/01 06:28:45;;;;;;;36.72;22.02;;;3.50;99.90;;;;;;4943950;29;20252;-82
2021/01/01 06:31:12;;;;;;;40.40;23.33;;;3.50;99.90;;;;;;4950280;28;20204;-83
2021/01/01 06:33:44;;;;;;;35.25;21.73;;;3.10;99.90;;;;;;4934185;29;20944;-82
2021/01/01 06:36:39;;;;;;;47.40;25.83;;;3.70;99.90;;;;;;4942967;28;20712;-83
2021/01/01 06:39:37;;;;;;;42.83;26.08;;;3.80;99.90;;;;;;4954487;28;20335;-82
2021/01/01 06:42:08;;;;;;;48.83;27.40;;;3.50;99.90;;;;;;4954491;28;20192;-82
2021/01/01 06:44:39;;;;;;;43.15;25.38;;;3.50;99.90;;;;;;4954450;28;20598;-82
2021/01/01 06:47:30;;;;;;;42.63;26.15;;;3.50;99.90;;;;;;4969212;28;20198;-82
2021/01/01 06:49:58;;;;;;;49.08;29.70;;;3.60;99.90;;;;;;4952572;29;20204;-82
2021/01/01 06:52:29;;;;;;;47.33;26.10;;;3.60;99.90;;;;;;4937199;29;20188;-82
2021/01/01 06:55:03;;;;;;;40.70;25.23;;;3.60;99.90;;;;;;4947554;28;20760;-82
2021/01/01 06:57:30;;;;;;;48.00;28.17;;;3.50;99.90;;;;;;4934767;29;20558;-82
2021/01/01 07:00:00;;;;;;;54.10;30.33;;;3.50;99.90;;;;;;4934800;29;20195;-82
2021/01/01 07:02:31;;;;;;;51.75;30.73;;;3.40;99.90;;;;;;4949762;29;20622;-83
2021/01/01 07:05:00;;;;;;;50.28;30.70;;;3.40;99.90;;;;;;4934723;29;20200;-83
2021/01/01 07:07:52;;;;;;;52.25;28.92;;;3.50;99.90;;;;;;4967625;28;20213;-83
2021/01/01 07:10:34;;;;;;;55.15;31.77;;;3.50;99.90;;;;;;4936855;29;20588;-83
2021/01/01 07:13:17;;;;;;;62.83;32.28;;;3.80;99.90;;;;;;4953353;29;20268;-82
2021/01/01 07:15:48;;;;;;;55.00;34.35;;;3.40;99.90;;;;;;4953846;28;20279;-83
2021/01/01 07:18:21;;;;;;;63.67;35.10;;;3.40;99.90;;;;;;4953109;29;20656;-82
2021/01/01 07:20:49;;;;;;;75.03;40.30;;;3.40;99.90;;;;;;4953095;29;20294;-83
2021/01/01 07:23:24;;;;;;;56.03;32.72;;;3.30;99.90;;;;;;4933525;29;20323;-83
2021/01/01 07:25:52;;;;;;;61.20;38.15;;;3.50;99.90;;;;;;4918242;29;20169;-83
2021/01/01 07:28:21;;;;;;;53.87;32.20;;;3.40;99.90;;;;;;4917728;29;20192;-83
2021/01/01 07:30:57;;;;;;;75.15;43.58;;;3.40;99.90;;;;;;4933236;29;20552;-83
2021/01/01 07:33:26;;;;;;;65.93;36.08;;;3.40;99.90;;;;;;4949794;29;20279;-83
2021/01/01 07:36:01;;;;;;;72.35;42.40;;;3.40;99.90;;;;;;4930720;28;20293;-83
2021/01/01 07:38:38;;;;;;;59.20;36.65;;;3.60;99.90;;;;;;4914725;29;20315;-83
2021/01/01 07:41:06;;;;;;;61.35;35.05;;;3.50;99.90;;;;;;4915255;29;20634;-83
2021/01/01 07:43:38;;;;;;;59.00;35.40;;;3.70;99.90;;;;;;4930481;28;20197;-83
2021/01/01 07:46:13;;;;;;;57.25;34.53;;;3.50;99.90;;;;;;4917797;29;20177;-83
2021/01/01 07:48:43;;;;;;;56.13;34.05;;;3.50;99.90;;;;;;4925066;29;20687;-83
2021/01/01 07:51:11;;;;;;;58.67;33.53;;;3.50;99.90;;;;;;4953070;29;20638;-83
2021/01/01 07:53:37;;;;;;;53.80;32.50;;;3.70;99.90;;;;;;4938389;29;20192;-83
2021/01/01 07:56:10;;;;;;;55.53;33.53;;;3.70;99.90;;;;;;4921455;29;20627;-83
2021/01/01 07:58:37;;;;;;;60.72;36.33;;;3.50;99.90;;;;;;4938043;29;20204;-83
2021/01/01 08:01:07;;;;;;;59.47;36.03;;;3.60;99.90;;;;;;4937932;29;20260;-83
2021/01/01 08:03:37;;;;;;;60.88;34.47;;;3.70;99.90;;;;;;4938516;29;20999;-83
2021/01/01 08:06:09;;;;;;;57.47;35.38;;;3.60;99.90;;;;;;4928776;29;20202;-83
2021/01/01 08:08:41;;;;;;;61.65;35.30;;;3.60;99.90;;;;;;4957422;28;20196;-83
2021/01/01 08:11:11;;;;;;;66.85;36.40;;;3.20;99.90;;;;;;4956643;29;20242;-83
2021/01/01 08:13:37;;;;;;;64.40;35.95;;;3.60;99.90;;;;;;4956070;29;20207;-83
2021/01/01 08:16:16;;;;;;;59.47;36.35;;;3.70;99.90;;;;;;4941213;29;20301;-83
2021/01/01 08:18:49;;;;;;;62.45;38.28;;;3.60;99.90;;;;;;4940936;29;20224;-83
2021/01/01 08:21:15;;;;;;;64.90;36.25;;;3.60;99.90;;;;;;4933750;29;20245;-84
2021/01/01 08:23:52;;;;;;;65.97;38.00;;;3.50;99.90;;;;;;4933252;29;20303;-83
2021/01/01 08:26:23;;;;;;;62.55;37.03;;;3.70;99.90;;;;;;4948608;29;20189;-83
2021/01/01 08:28:52;;;;;;;61.80;38.80;;;3.70;99.90;;;;;;4933171;29;20193;-83
2021/01/01 08:31:25;;;;;;;68.55;40.33;;;3.70;99.90;;;;;;4949293;29;20197;-84
2021/01/01 08:33:57;;;;;;;67.85;40.10;;;3.90;99.90;;;;;;4918472;29;20965;-83
2021/01/01 08:36:33;;;;;;;71.40;39.30;;;4.00;99.90;;;;;;4936378;29;20211;-84
2021/01/01 08:39:11;;;;;;;79.90;43.35;;;3.90;99.90;;;;;;4955446;29;20184;-84
2021/01/01 08:41:47;;;;;;;80.47;45.80;;;4.00;99.90;;;;;;4956188;28;20542;-84
2021/01/01 08:44:17;;;;;;;75.88;43.20;;;4.10;99.90;;;;;;4955675;28;20172;-84
2021/01/01 08:46:59;;;;;;;79.85;45.03;;;3.90;99.90;;;;;;4939895;29;20192;-84
2021/01/01 08:49:27;;;;;;;81.68;46.17;;;3.80;99.90;;;;;;4938740;29;20196;-83
2021/01/01 08:51:53;;;;;;;73.13;43.45;;;4.00;99.90;;;;;;4947740;29;20208;-83
2021/01/01 08:54:25;;;;;;;81.20;47.20;;;3.90;99.90;;;;;;4955241;28;20184;-84
2021/01/01 08:57:01;;;;;;;75.75;44.63;;;4.00;99.90;;;;;;4955421;28;20760;-84
2021/01/01 08:59:28;;;;;;;89.00;48.90;;;3.90;99.90;;;;;;4955678;29;20192;-83
2021/01/01 09:01:56;;;;;;;85.70;47.90;;;4.00;99.90;;;;;;4956823;29;20211;-84
2021/01/01 09:04:31;;;;;;;86.22;45.97;;;3.90;99.90;;;;;;4940325;29;20215;-83
2021/01/01 09:07:02;;;;;;;96.45;52.35;;;3.90;99.90;;;;;;4943529;29;20279;-83
2021/01/01 09:09:34;;;;;;;93.68;50.67;;;4.20;99.90;;;;;;4938608;29;20291;-84
2021/01/01 09:12:15;;;;;;;88.85;49.63;;;4.00;99.90;;;;;;4953597;29;20216;-84
2021/01/01 09:14:59;;;;;;;87.25;50.42;;;4.10;99.90;;;;;;4953662;29;20215;-83
2021/01/01 09:17:30;;;;;;;89.50;50.15;;;4.10;99.90;;;;;;4952921;28;20516;-83
2021/01/01 09:20:08;;;;;;;91.63;50.70;;;4.10;99.90;;;;;;4939471;29;20196;-83
2021/01/01 09:22:36;;;;;;;83.45;48.65;;;4.20;99.90;;;;;;4972030;28;20251;-84
2021/01/01 09:25:40;;;;;;;87.55;51.05;;;4.10;99.90;;;;;;4956217;28;20227;-83
2021/01/01 09:28:10;;;;;;;85.10;49.70;;;4.30;99.90;;;;;;4939393;29;20195;-83
2021/01/01 09:30:50;;;;;;;88.20;48.47;;;4.30;99.90;;;;;;4956927;28;20208;-83
2021/01/01 09:33:20;;;;;;;82.43;48.45;;;4.20;99.90;;;;;;4940015;29;20192;-83
2021/01/01 09:35:48;;;;;;;81.45;46.92;;;4.50;99.90;;;;;;4952695;28;20224;-84
2021/01/01 09:38:19;;;;;;;77.10;45.93;;;4.30;99.90;;;;;;4937042;29;20685;-83
2021/01/01 09:40:52;;;;;;;83.07;47.53;;;4.30;99.90;;;;;;4937199;29;20436;-83
2021/01/01 09:43:22;;;;;;;79.32;47.63;;;4.30;99.90;;;;;;4952519;29;20177;-83
2021/01/01 09:45:51;;;;;;;80.38;46.30;;;4.30;99.90;;;;;;4936710;29;20508;-83
2021/01/01 09:48:20;;;;;;;91.90;47.43;;;4.40;99.90;;;;;;4940498;28;20211;-83
2021/01/01 09:50:50;;;;;;;81.05;45.75;;;4.30;99.90;;;;;;4956775;28;20538;-82
2021/01/01 09:53:21;;;;;;;75.03;44.08;;;4.40;99.90;;;;;;4925560;28;20532;-82
2021/01/01 09:55:50;;;;;;;74.72;44.13;;;4.50;99.90;;;;;;4918889;29;20236;-83
2021/01/01 09:58:18;;;;;;;80.68;45.42;;;4.50;99.90;;;;;;4949179;29;20714;-83
2021/01/01 10:00:53;;;;;;;75.22;46.75;;;4.60;99.90;;;;;;4934136;29;20255;-84
2021/01/01 10:03:23;;;;;;;79.35;46.60;;;4.60;99.90;;;;;;4935486;29;20205;-84
2021/01/01 10:05:52;;;;;;;85.35;49.17;;;4.50;99.90;;;;;;4939716;29;20196;-83
2021/01/01 10:08:23;;;;;;;77.68;46.40;;;4.50;99.90;;;;;;4953128;28;20196;-84
2021/01/01 10:10:52;;;;;;;89.25;51.13;;;4.60;99.90;;;;;;4953485;29;20202;-83
2021/01/01 10:13:28;;;;;;;71.47;45.95;;;4.80;99.90;;;;;;4938471;29;20226;-83
2021/01/01 10:16:06;;;;;;;87.50;54.30;;;4.80;99.90;;;;;;4943568;29;20208;-83
2021/01/01 10:18:35;;;;;;;77.70;44.38;;;4.80;99.90;;;;;;4950478;29;20307;-83
2021/01/01 10:21:07;;;;;;;78.25;44.25;;;4.90;99.90;;;;;;4935368;29;20288;-83
2021/01/01 10:23:35;;;;;;;69.25;42.75;;;4.80;99.90;;;;;;4935216;29;20305;-83
2021/01/01 10:26:08;;;;;;;78.78;43.00;;;4.80;99.90;;;;;;4934095;29;20188;-83
2021/01/01 10:28:36;;;;;;;81.72;44.17;;;4.70;99.90;;;;;;4950306;29;20196;-83
2021/01/01 10:31:02;;;;;;;73.93;41.85;;;4.90;99.90;;;;;;4950575;29;20383;-83
2021/01/01 10:33:31;;;;;;;75.50;44.08;;;4.90;99.90;;;;;;4935216;29;20200;-83
2021/01/01 10:35:57;;;;;;;67.43;40.30;;;4.90;99.90;;;;;;4934651;29;20203;-83
2021/01/01 10:38:22;;;;;;;75.93;41.70;;;5.10;99.90;;;;;;4938236;29;20888;-87
2021/01/01 10:40:50;;;;;;;63.87;38.67;;;5.10;99.90;;;;;;4920270;29;20508;-86
2021/01/01 10:43:18;;;;;;;67.75;39.60;;;5.00;99.90;;;;;;4950695;29;20441;-86
2021/01/01 10:45:46;;;;;;;72.95;40.80;;;5.00;99.90;;;;;;4929676;29;20199;-87
2021/01/01 10:48:14;;;;;;;64.93;39.70;;;5.10;99.90;;;;;;4957375;28;20192;-87
2021/01/01 10:50:40;;;;;;;66.13;39.80;;;5.00;99.90;;;;;;4940343;28;20483;-85
2021/01/01 10:53:08;;;;;;;65.40;37.90;;;5.00;99.90;;;;;;4953990;28;20212;-84
2021/01/01 10:55:41;;;;;;;68.45;38.75;;;5.00;99.90;;;;;;4938635;29;20436;-86
2021/01/01 10:58:14;;;;;;;63.53;37.90;;;5.00;99.90;;;;;;4939489;29;20235;-89
2021/01/01 11:00:40;;;;;;;68.47;41.13;;;4.90;99.90;;;;;;4940517;29;20602;-88
2021/01/01 11:03:06;;;;;;;66.30;39.60;;;4.90;99.90;;;;;;4940406;29;20207;-89
2021/01/01 11:05:32;;;;;;;58.90;36.30;;;5.00;99.90;;;;;;4971618;28;20764;-92
2021/01/01 11:08:01;;;;;;;66.90;37.40;;;5.00;99.90;;;;;;4940607;28;20490;-90
2021/01/01 11:10:27;;;;;;;63.10;38.83;;;5.00;99.90;;;;;;4940444;29;20188;-89
2021/01/01 11:12:55;;;;;;;64.57;35.50;;;5.00;99.90;;;;;;4940492;29;20408;-90
2021/01/01 12:24:56;;;;;;;50.00;29.05;;;5.10;99.90;;;;;;4943127;29;20227;-88
2021/01/01 12:27:30;;;;;;;48.35;27.67;;;5.00;99.90;;;;;;4942831;29;20644;-87
2021/01/01 12:29:56;;;;;;;48.65;28.40;;;5.00;99.90;;;;;;4943565;29;20214;-88
2021/01/01 12:32:25;;;;;;;52.92;28.60;;;5.00;99.90;;;;;;4954596;28;20565;-87
2021/01/01 12:34:54;;;;;;;43.88;26.90;;;5.10;99.90;;;;;;4939687;29;20247;-87
2021/01/01 12:37:23;;;;;;;47.55;29.50;;;5.00;99.90;;;;;;4948504;29;20229;-88
2021/01/01 12:39:54;;;;;;;50.50;28.75;;;5.00;99.90;;;;;;4933369;29;20188;-87
2021/01/01 12:42:24;;;;;;;44.67;28.20;;;5.00;99.90;;;;;;4939217;29;20251;-87
2021/01/01 12:44:50;;;;;;;43.58;25.90;;;5.10;99.90;;;;;;4955345;28;20243;-89
2021/01/01 12:47:16;;;;;;;42.37;26.00;;;5.00;99.90;;;;;;4940160;29;20200;-88
2021/01/01 12:49:43;;;;;;;43.50;25.57;;;5.00;99.90;;;;;;4939420;29;20460;-87
2021/01/01 12:52:12;;;;;;;44.15;25.20;;;5.10;99.90;;;;;;4940232;29;20894;-88
2021/01/01 12:54:40;;;;;;;43.35;25.90;;;5.10;99.90;;;;;;4940327;29;20169;-89
2021/01/01 12:57:06;;;;;;;42.67;25.77;;;5.10;99.90;;;;;;4940693;29;20223;-88
2021/01/01 12:59:32;;;;;;;39.17;26.03;;;5.00;99.90;;;;;;4955778;29;20428;-89
2021/01/01 13:02:03;;;;;;;44.13;25.05;;;5.00;99.90;;;;;;4940514;29;20412;-88
2021/01/01 13:04:29;;;;;;;44.13;22.65;;;5.00;99.90;;;;;;4939972;29;20185;-87
2021/01/01 13:06:55;;;;;;;38.73;22.67;;;5.00;99.90;;;;;;4940316;29;20255;-88
2021/01/01 13:09:24;;;;;;;40.53;24.57;;;5.00;99.90;;;;;;4955545;29;20431;-89
2021/01/01 13:11:50;;;;;;;37.63;23.70;;;4.90;99.90;;;;;;4939529;29;20428;-88
2021/01/01 13:14:16;;;;;;;41.07;22.67;;;4.90;99.90;;;;;;4939974;28;20181;-86
2021/01/01 13:16:43;;;;;;;39.00;23.33;;;5.00;99.90;;;;;;4940086;29;20460;-88
2021/01/01 13:19:10;;;;;;;33.88;21.95;;;4.80;99.90;;;;;;4933832;28;20653;-87
2021/01/01 13:21:39;;;;;;;36.63;23.05;;;4.80;99.90;;;;;;4920489;29;20193;-87
2021/01/01 13:24:08;;;;;;;37.47;24.15;;;4.80;99.90;;;;;;4950233;29;20225;-87
2021/01/01 13:26:36;;;;;;;40.17;24.48;;;4.80;99.90;;;;;;4920657;29;20193;-87
2021/01/01 13:29:05;;;;;;;41.65;23.02;;;4.80;99.90;;;;;;4935083;29;20189;-86
2021/01/01 13:31:43;;;;;;;34.83;22.40;;;4.80;99.90;;;;;;4951045;29;20200;-87
2021/01/01 13:34:10;;;;;;;38.33;21.63;;;4.80;99.90;;;;;;4929625;29;20228;-87
2021/01/01 13:36:38;;;;;;;41.28;23.80;;;4.70;99.90;;;;;;4938037;29;20189;-87
2021/01/01 13:39:06;;;;;;;42.78;24.73;;;4.80;99.90;;;;;;4903273;29;20427;-87
2021/01/01 13:41:38;;;;;;;39.70;22.05;;;4.80;99.90;;;;;;4920731;29;20177;-88
2021/01/01 13:44:05;;;;;;;44.33;22.48;;;4.80;99.90;;;;;;4918799;29;20643;-87
2021/01/01 13:46:34;;;;;;;37.42;22.77;;;4.80;99.90;;;;;;4919875;29;20219;-87
2021/01/01 13:49:04;;;;;;;34.15;21.83;;;4.80;99.90;;;;;;4919858;29;20208;-87
2021/01/01 13:51:34;;;;;;;35.53;21.90;;;4.90;99.90;;;;;;4934793;29;20193;-87
2021/01/01 13:54:00;;;;;;;42.13;23.25;;;4.90;99.90;;;;;;4938324;29;20665;-87
2021/01/01 13:56:29;;;;;;;37.70;24.63;;;4.90;99.90;;;;;;4938473;29;20196;-86
2021/01/01 13:58:55;;;;;;;40.03;22.88;;;4.90;99.90;;;;;;4953300;29;20227;-86
2021/01/01 14:01:25;;;;;;;47.70;25.45;;;4.90;99.90;;;;;;4938671;29;20346;-87
2021/01/01 14:03:52;;;;;;;41.78;24.48;;;4.90;99.90;;;;;;4938661;29;20184;-87